sensor_id;sensor_type;location;lat;lon;timestamp;pressure;altitude;pressure_sealevel;temperature
15360;BMP280;7779;49.596;11.070;2023-05-10T00:02:09;97507.84;;;19.38
15360;BMP280;7779;49.596;11.070;2023-05-10T00:04:35;97507.00;;;19.39
15360;BMP280;7779;49.596;11.070;2023-05-10T00:07:00;97515.50;;;19.40
15360;BMP280;7779;49.596;11.070;2023-05-10T00:09:27;97500.22;;;19.38
15360;BMP280;7779;49.596;11.070;2023-05-10T00:11:52;97504.47;;;19.38
15360;BMP280;7779;49.596;11.070;2023-05-10T00:14:18;97500.19;;;19.35
15360;BMP280;7779;49.596;11.070;2023-05-10T00:16:44;97501.84;;;19.32
15360;BMP280;7779;49.596;11.070;2023-05-10T00:19:10;97494.22;;;19.30
15360;BMP280;7779;49.596;11.070;2023-05-10T00:21:36;97509.44;;;19.27
15360;BMP280;7779;49.596;11.070;2023-05-10T00:24:02;97500.09;;;19.23
15360;BMP280;7779;49.596;11.070;2023-05-10T00:26:27;97500.06;;;19.20
15360;BMP280;7779;49.596;11.070;2023-05-10T00:28:55;97499.16;;;19.16
15360;BMP280;7779;49.596;11.070;2023-05-10T00:31:22;97496.59;;;19.11
15360;BMP280;7779;49.596;11.070;2023-05-10T00:33:47;97501.63;;;19.08
15360;BMP280;7779;49.596;11.070;2023-05-10T00:36:13;97502.41;;;19.03
15360;BMP280;7779;49.596;11.070;2023-05-10T00:38:40;97506.59;;;18.99
15360;BMP280;7779;49.596;11.070;2023-05-10T00:41:06;97500.59;;;18.96
15360;BMP280;7779;49.596;11.070;2023-05-10T00:43:33;97498.03;;;18.91
15360;BMP280;7779;49.596;11.070;2023-05-10T00:45:59;97503.06;;;18.88
15360;BMP280;7779;49.596;11.070;2023-05-10T00:48:25;97499.63;;;18.82
15360;BMP280;7779;49.596;11.070;2023-05-10T00:50:51;97504.66;;;18.79
15360;BMP280;7779;49.596;11.070;2023-05-10T00:53:18;97508.00;;;18.75
15360;BMP280;7779;49.596;11.070;2023-05-10T00:55:44;97504.56;;;18.70
15360;BMP280;7779;49.596;11.070;2023-05-10T00:58:10;97502.78;;;18.65
15360;BMP280;7779;49.596;11.070;2023-05-10T01:00:37;97501.88;;;18.60
15360;BMP280;7779;49.596;11.070;2023-05-10T01:03:04;97501.81;;;18.54
15360;BMP280;7779;49.596;11.070;2023-05-10T01:05:29;97500.88;;;18.47
15360;BMP280;7779;49.596;11.070;2023-05-10T01:07:56;97505.06;;;18.44
15360;BMP280;7779;49.596;11.070;2023-05-10T01:10:22;97507.53;;;18.38
15360;BMP280;7779;49.596;11.070;2023-05-10T01:12:49;97504.06;;;18.33
15360;BMP280;7779;49.596;11.070;2023-05-10T01:15:16;97514.16;;;18.27
15360;BMP280;7779;49.596;11.070;2023-05-10T01:17:46;97501.41;;;18.23
15360;BMP280;7779;49.596;11.070;2023-05-10T01:20:14;97503.03;;;18.18
15360;BMP280;7779;49.596;11.070;2023-05-10T01:26:14;97503.75;;;18.09
15360;BMP280;7779;49.596;11.070;2023-05-10T01:29:11;97502.78;;;18.03
15360;BMP280;7779;49.596;11.070;2023-05-10T01:35:01;97504.38;;;17.97
15360;BMP280;7779;49.596;11.070;2023-05-10T01:38:41;97504.31;;;17.92
15360;BMP280;7779;49.596;11.070;2023-05-10T01:47:05;97502.41;;;17.79
15360;BMP280;7779;49.596;11.070;2023-05-10T01:49:39;97501.53;;;17.77
15360;BMP280;7779;49.596;11.070;2023-05-10T01:52:12;97504.03;;;17.74
15360;BMP280;7779;49.596;11.070;2023-05-10T01:54:48;97505.72;;;17.75
15360;BMP280;7779;49.596;11.070;2023-05-10T01:57:19;97515.00;;;17.73
15360;BMP280;7779;49.596;11.070;2023-05-10T01:59:50;97505.72;;;17.72
15360;BMP280;7779;49.596;11.070;2023-05-10T02:02:18;97512.44;;;17.70
15360;BMP280;7779;49.596;11.070;2023-05-10T02:04:47;97512.41;;;17.69
15360;BMP280;7779;49.596;11.070;2023-05-10T02:07:15;97507.31;;;17.67
15360;BMP280;7779;49.596;11.070;2023-05-10T02:09:44;97507.31;;;17.67
15360;BMP280;7779;49.596;11.070;2023-05-10T02:12:15;97505.59;;;17.66
15360;BMP280;7779;49.596;11.070;2023-05-10T02:14:42;97518.25;;;17.66
15360;BMP280;7779;49.596;11.070;2023-05-10T02:17:09;97512.34;;;17.66
15360;BMP280;7779;49.596;11.070;2023-05-10T02:19:39;97510.66;;;17.66
15360;BMP280;7779;49.596;11.070;2023-05-10T02:22:07;97509.81;;;17.66
15360;BMP280;7779;49.596;11.070;2023-05-10T02:24:36;97513.22;;;17.68
15360;BMP280;7779;49.596;11.070;2023-05-10T02:27:04;97510.72;;;17.69
15360;BMP280;7779;49.596;11.070;2023-05-10T02:29:32;97511.53;;;17.68
15360;BMP280;7779;49.596;11.070;2023-05-10T02:31:59;97509.88;;;17.69
15360;BMP280;7779;49.596;11.070;2023-05-10T02:34:28;97507.38;;;17.70
15360;BMP280;7779;49.596;11.070;2023-05-10T02:36:56;97514.13;;;17.71
15360;BMP280;7779;49.596;11.070;2023-05-10T02:39:23;97518.38;;;17.72
15360;BMP280;7779;49.596;11.070;2023-05-10T02:41:51;97515.88;;;17.75
15360;BMP280;7779;49.596;11.070;2023-05-10T02:44:19;97514.22;;;17.76
15360;BMP280;7779;49.596;11.070;2023-05-10T02:46:46;97507.47;;;17.78
15360;BMP280;7779;49.596;11.070;2023-05-10T02:49:12;97507.47;;;17.79
15360;BMP280;7779;49.596;11.070;2023-05-10T02:51:47;97510.91;;;17.81
15360;BMP280;7779;49.596;11.070;2023-05-10T02:54:27;97509.25;;;17.83
15360;BMP280;7779;49.596;11.070;2023-05-10T02:56:58;97500.81;;;17.84
15360;BMP280;7779;49.596;11.070;2023-05-10T02:59:26;97505.06;;;17.85
15360;BMP280;7779;49.596;11.070;2023-05-10T03:01:52;97512.69;;;17.87
15360;BMP280;7779;49.596;11.070;2023-05-10T03:04:18;97517.75;;;17.88
15360;BMP280;7779;49.596;11.070;2023-05-10T03:06:44;97514.34;;;17.86
15360;BMP280;7779;49.596;11.070;2023-05-10T03:09:11;97518.59;;;17.87
15360;BMP280;7779;49.596;11.070;2023-05-10T03:20:30;97519.41;;;17.86
15360;BMP280;7779;49.596;11.070;2023-05-10T03:23:27;97521.13;;;17.87
15360;BMP280;7779;49.596;11.070;2023-05-10T03:25:56;97521.94;;;17.86
15360;BMP280;7779;49.596;11.070;2023-05-10T03:28:24;97527.88;;;17.88
15360;BMP280;7779;49.596;11.070;2023-05-10T03:30:53;97527.94;;;17.91
15360;BMP280;7779;49.596;11.070;2023-05-10T03:33:20;97527.97;;;17.93
15360;BMP280;7779;49.596;11.070;2023-05-10T03:35:46;97533.06;;;17.94
15360;BMP280;7779;49.596;11.070;2023-05-10T03:38:13;97527.16;;;17.95
15360;BMP280;7779;49.596;11.070;2023-05-10T03:40:39;97534.78;;;17.97
15360;BMP280;7779;49.596;11.070;2023-05-10T03:43:07;97539.91;;;17.99
15360;BMP280;7779;49.596;11.070;2023-05-10T03:45:32;97542.47;;;18.02
15360;BMP280;7779;49.596;11.070;2023-05-10T03:47:59;97537.47;;;18.05
15360;BMP280;7779;49.596;11.070;2023-05-10T03:50:24;97531.56;;;18.08
15360;BMP280;7779;49.596;11.070;2023-05-10T03:52:50;97540.09;;;18.10
15360;BMP280;7779;49.596;11.070;2023-05-10T03:55:16;97541.78;;;18.11
15360;BMP280;7779;49.596;11.070;2023-05-10T03:57:42;97536.78;;;18.14
15360;BMP280;7779;49.596;11.070;2023-05-10T04:00:09;97547.75;;;18.14
15360;BMP280;7779;49.596;11.070;2023-05-10T04:02:41;97550.31;;;18.16
15360;BMP280;7779;49.596;11.070;2023-05-10T04:05:10;97546.09;;;18.16
15360;BMP280;7779;49.596;11.070;2023-05-10T04:07:36;97555.41;;;18.19
15360;BMP280;7779;49.596;11.070;2023-05-10T04:10:02;97551.22;;;18.19
15360;BMP280;7779;49.596;11.070;2023-05-10T04:12:27;97552.06;;;18.20
15360;BMP280;7779;49.596;11.070;2023-05-10T04:14:53;97555.47;;;18.22
15360;BMP280;7779;49.596;11.070;2023-05-10T04:17:19;97562.25;;;18.23
15360;BMP280;7779;49.596;11.070;2023-05-10T04:19:44;97565.66;;;18.25
15360;BMP280;7779;49.596;11.070;2023-05-10T04:22:10;97566.50;;;18.25
15360;BMP280;7779;49.596;11.070;2023-05-10T04:24:36;97567.34;;;18.26
15360;BMP280;7779;49.596;11.070;2023-05-10T04:27:01;97570.75;;;18.28
15360;BMP280;7779;49.596;11.070;2023-05-10T04:29:27;97565.69;;;18.28
15360;BMP280;7779;49.596;11.070;2023-05-10T04:31:53;97564.88;;;18.29
15360;BMP280;7779;49.596;11.070;2023-05-10T04:34:21;97570.81;;;18.31
15360;BMP280;7779;49.596;11.070;2023-05-10T04:36:46;97569.97;;;18.30
15360;BMP280;7779;49.596;11.070;2023-05-10T04:39:12;97575.84;;;18.29
15360;BMP280;7779;49.596;11.070;2023-05-10T04:41:39;97583.44;;;18.28
15360;BMP280;7779;49.596;11.070;2023-05-10T04:44:05;97586.84;;;18.28
15360;BMP280;7779;49.596;11.070;2023-05-10T04:46:31;97585.13;;;18.27
15360;BMP280;7779;49.596;11.070;2023-05-10T04:48:57;97591.03;;;18.28
15360;BMP280;7779;49.596;11.070;2023-05-10T04:51:23;97590.19;;;18.27
15360;BMP280;7779;49.596;11.070;2023-05-10T04:53:48;97591.94;;;18.28
15360;BMP280;7779;49.596;11.070;2023-05-10T04:56:14;97596.13;;;18.28
15360;BMP280;7779;49.596;11.070;2023-05-10T04:58:40;97602.06;;;18.28
15360;BMP280;7779;49.596;11.070;2023-05-10T05:01:07;97602.91;;;18.29
15360;BMP280;7779;49.596;11.070;2023-05-10T05:03:34;97597.00;;;18.28
15360;BMP280;7779;49.596;11.070;2023-05-10T05:06:00;97603.69;;;18.25
15360;BMP280;7779;49.596;11.070;2023-05-10T05:08:26;97611.28;;;18.23
15360;BMP280;7779;49.596;11.070;2023-05-10T05:10:52;97610.34;;;18.18
15360;BMP280;7779;49.596;11.070;2023-05-10T05:13:18;97607.75;;;18.14
15360;BMP280;7779;49.596;11.070;2023-05-10T05:15:44;97614.50;;;18.12
15360;BMP280;7779;49.596;11.070;2023-05-10T05:18:10;97620.38;;;18.11
15360;BMP280;7779;49.596;11.070;2023-05-10T05:20:35;97627.97;;;18.11
15360;BMP280;7779;49.596;11.070;2023-05-10T05:23:01;97623.75;;;18.10
15360;BMP280;7779;49.596;11.070;2023-05-10T05:25:27;97633.06;;;18.12
15360;BMP280;7779;49.596;11.070;2023-05-10T05:27:53;97638.16;;;18.12
15360;BMP280;7779;49.596;11.070;2023-05-10T05:30:19;97635.66;;;18.15
15360;BMP280;7779;49.596;11.070;2023-05-10T05:32:45;97639.09;;;18.17
15360;BMP280;7779;49.596;11.070;2023-05-10T05:35:12;97638.28;;;18.21
15360;BMP280;7779;49.596;11.070;2023-05-10T05:37:39;97631.59;;;18.25
15360;BMP280;7779;49.596;11.070;2023-05-10T05:40:05;97643.47;;;18.29
15360;BMP280;7779;49.596;11.070;2023-05-10T05:42:31;97641.81;;;18.31
15360;BMP280;7779;49.596;11.070;2023-05-10T05:44:57;97641.91;;;18.37
15360;BMP280;7779;49.596;11.070;2023-05-10T05:47:23;97644.50;;;18.39
15360;BMP280;7779;49.596;11.070;2023-05-10T05:49:48;97648.75;;;18.42
15360;BMP280;7779;49.596;11.070;2023-05-10T05:52:14;97652.19;;;18.45
15360;BMP280;7779;49.596;11.070;2023-05-10T05:54:40;97651.38;;;18.49
15360;BMP280;7779;49.596;11.070;2023-05-10T05:57:05;97662.44;;;18.51
15360;BMP280;7779;49.596;11.070;2023-05-10T05:59:31;97658.25;;;18.53
15360;BMP280;7779;49.596;11.070;2023-05-10T06:01:57;97667.53;;;18.54
15360;BMP280;7779;49.596;11.070;2023-05-10T06:04:22;97670.13;;;18.57
15360;BMP280;7779;49.596;11.070;2023-05-10T06:06:48;97667.66;;;18.62
15360;BMP280;7779;49.596;11.070;2023-05-10T06:09:14;97672.81;;;18.66
15360;BMP280;7779;49.596;11.070;2023-05-10T06:11:40;97673.69;;;18.70
15360;BMP280;7779;49.596;11.070;2023-05-10T06:14:06;97667.84;;;18.75
15360;BMP280;7779;49.596;11.070;2023-05-10T06:16:34;97666.22;;;18.80
15360;BMP280;7779;49.596;11.070;2023-05-10T06:19:00;97670.50;;;18.82
15360;BMP280;7779;49.596;11.070;2023-05-10T06:21:25;97676.47;;;18.86
15360;BMP280;7779;49.596;11.070;2023-05-10T06:23:51;97677.38;;;18.89
15360;BMP280;7779;49.596;11.070;2023-05-10T06:26:17;97683.34;;;18.93
15360;BMP280;7779;49.596;11.070;2023-05-10T06:28:42;97686.75;;;18.95
15360;BMP280;7779;49.596;11.070;2023-05-10T06:31:08;97698.69;;;19.00
15360;BMP280;7779;49.596;11.070;2023-05-10T06:33:34;97686.84;;;19.01
15360;BMP280;7779;49.596;11.070;2023-05-10T06:36:00;97692.00;;;19.07
15360;BMP280;7779;49.596;11.070;2023-05-10T06:38:26;97692.06;;;19.10
15360;BMP280;7779;49.596;11.070;2023-05-10T06:40:52;97695.53;;;19.17
15360;BMP280;7779;49.596;11.070;2023-05-10T06:43:17;97694.78;;;19.24
15360;BMP280;7779;49.596;11.070;2023-05-10T06:45:43;97692.34;;;19.33
15360;BMP280;7779;49.596;11.070;2023-05-10T06:48:09;97697.53;;;19.42
15360;BMP280;7779;49.596;11.070;2023-05-10T06:50:35;97697.69;;;19.54
15360;BMP280;7779;49.596;11.070;2023-05-10T06:53:01;97691.91;;;19.67
15360;BMP280;7779;49.596;11.070;2023-05-10T06:55:27;97701.44;;;19.83
15360;BMP280;7779;49.596;11.070;2023-05-10T06:57:54;97699.06;;;19.99
15360;BMP280;7779;49.596;11.070;2023-05-10T07:00:20;97705.13;;;20.14
15360;BMP280;7779;49.596;11.070;2023-05-10T07:02:46;97694.22;;;20.29
15360;BMP280;7779;49.596;11.070;2023-05-10T07:05:13;97698.63;;;20.46
15360;BMP280;7779;49.596;11.070;2023-05-10T07:07:39;97688.63;;;20.64
15360;BMP280;7779;49.596;11.070;2023-05-10T07:10:05;97695.50;;;20.79
15360;BMP280;7779;49.596;11.070;2023-05-10T07:12:31;97688.78;;;20.93
15360;BMP280;7779;49.596;11.070;2023-05-10T07:14:57;97695.69;;;21.09
15360;BMP280;7779;49.596;11.070;2023-05-10T07:17:22;97694.03;;;21.20
15360;BMP280;7779;49.596;11.070;2023-05-10T07:19:48;97698.34;;;21.31
15360;BMP280;7779;49.596;11.070;2023-05-10T07:22:15;97702.63;;;21.40
15360;BMP280;7779;49.596;11.070;2023-05-10T07:24:42;97700.13;;;21.47
15360;BMP280;7779;49.596;11.070;2023-05-10T07:27:08;97699.31;;;21.53
15360;BMP280;7779;49.596;11.070;2023-05-10T07:29:35;97687.44;;;21.56
15360;BMP280;7779;49.596;11.070;2023-05-10T07:32:01;97701.88;;;21.58
15360;BMP280;7779;49.596;11.070;2023-05-10T07:34:26;97712.09;;;21.61
15360;BMP280;7779;49.596;11.070;2023-05-10T07:36:53;97709.56;;;21.64
15360;BMP280;7779;49.596;11.070;2023-05-10T07:39:19;97708.72;;;21.67
15360;BMP280;7779;49.596;11.070;2023-05-10T07:41:51;97712.94;;;21.69
15360;BMP280;7779;49.596;11.070;2023-05-10T07:44:17;97708.72;;;21.68
15360;BMP280;7779;49.596;11.070;2023-05-10T07:46:44;97705.31;;;21.65
15360;BMP280;7779;49.596;11.070;2023-05-10T07:49:10;97713.78;;;21.62
15360;BMP280;7779;49.596;11.070;2023-05-10T07:51:35;97716.31;;;21.56
15360;BMP280;7779;49.596;11.070;2023-05-10T07:54:01;97722.22;;;21.51
15360;BMP280;7779;49.596;11.070;2023-05-10T07:56:31;97720.50;;;21.44
15360;BMP280;7779;49.596;11.070;2023-05-10T07:58:58;97719.63;;;21.41
15360;BMP280;7779;49.596;11.070;2023-05-10T08:01:24;97723.00;;;21.40
15360;BMP280;7779;49.596;11.070;2023-05-10T08:03:50;97720.44;;;21.35
15360;BMP280;7779;49.596;11.070;2023-05-10T08:06:18;97733.19;;;21.34
15360;BMP280;7779;49.596;11.070;2023-05-10T08:08:46;97728.91;;;21.33
15360;BMP280;7779;49.596;11.070;2023-05-10T08:11:16;97735.72;;;21.31
15360;BMP280;7779;49.596;11.070;2023-05-10T08:13:43;97726.31;;;21.24
15360;BMP280;7779;49.596;11.070;2023-05-10T08:16:09;97738.19;;;21.19
15360;BMP280;7779;49.596;11.070;2023-05-10T08:18:35;97743.25;;;21.13
15360;BMP280;7779;49.596;11.070;2023-05-10T08:21:01;97750.84;;;21.10
15360;BMP280;7779;49.596;11.070;2023-05-10T08:23:26;97744.03;;;21.06
15360;BMP280;7779;49.596;11.070;2023-05-10T08:25:52;97744.03;;;21.02
15360;BMP280;7779;49.596;11.070;2023-05-10T08:28:18;97749.06;;;20.96
15360;BMP280;7779;49.596;11.070;2023-05-10T08:30:43;97753.28;;;20.89
15360;BMP280;7779;49.596;11.070;2023-05-10T08:33:09;97754.94;;;20.84
15360;BMP280;7779;49.596;11.070;2023-05-10T08:35:35;97760.00;;;20.81
15360;BMP280;7779;49.596;11.070;2023-05-10T08:38:01;97754.91;;;20.81
15360;BMP280;7779;49.596;11.070;2023-05-10T08:40:27;97749.81;;;20.81
15360;BMP280;7779;49.596;11.070;2023-05-10T08:43:05;97758.31;;;20.80
15360;BMP280;7779;49.596;11.070;2023-05-10T08:45:37;97752.34;;;20.77
15360;BMP280;7779;49.596;11.070;2023-05-10T08:48:06;97765.88;;;20.72
15360;BMP280;7779;49.596;11.070;2023-05-10T08:50:36;97759.91;;;20.68
15360;BMP280;7779;49.596;11.070;2023-05-10T08:53:06;97758.19;;;20.66
15360;BMP280;7779;49.596;11.070;2023-05-10T08:55:33;97766.59;;;20.62
15360;BMP280;7779;49.596;11.070;2023-05-10T08:58:00;97772.53;;;20.61
15360;BMP280;7779;49.596;11.070;2023-05-10T09:00:26;97775.06;;;20.59
15360;BMP280;7779;49.596;11.070;2023-05-10T09:02:53;97774.19;;;20.57
15360;BMP280;7779;49.596;11.070;2023-05-10T09:05:19;97774.19;;;20.56
15360;BMP280;7779;49.596;11.070;2023-05-10T09:07:45;97784.34;;;20.51
15360;BMP280;7779;49.596;11.070;2023-05-10T09:10:13;97789.34;;;20.45
15360;BMP280;7779;49.596;11.070;2023-05-10T09:12:39;97790.94;;;20.33
15360;BMP280;7779;49.596;11.070;2023-05-10T09:15:06;97786.63;;;20.25
15360;BMP280;7779;49.596;11.070;2023-05-10T09:17:33;97795.88;;;20.20
15360;BMP280;7779;49.596;11.070;2023-05-10T09:20:00;97786.56;;;20.19
15360;BMP280;7779;49.596;11.070;2023-05-10T09:22:27;97796.81;;;20.26
15360;BMP280;7779;49.596;11.070;2023-05-10T09:25:14;97788.47;;;20.42
15360;BMP280;7779;49.596;11.070;2023-05-10T09:27:43;97781.00;;;20.58
15360;BMP280;7779;49.596;11.070;2023-05-10T09:30:23;97789.75;;;20.84
15360;BMP280;7779;49.596;11.070;2023-05-10T09:32:49;97779.72;;;21.12
15360;BMP280;7779;49.596;11.070;2023-05-10T09:35:22;97769.72;;;21.40
15360;BMP280;7779;49.596;11.070;2023-05-10T09:37:52;97773.28;;;21.63
15360;BMP280;7779;49.596;11.070;2023-05-10T09:40:27;97764.88;;;21.86
15360;BMP280;7779;49.596;11.070;2023-05-10T09:43:00;97767.47;;;22.13
15360;BMP280;7779;49.596;11.070;2023-05-10T09:45:29;97770.13;;;22.39
15360;BMP280;7779;49.596;11.070;2023-05-10T09:47:57;97760.81;;;22.65
15360;BMP280;7779;49.596;11.070;2023-05-10T09:50:23;97766.75;;;22.82
15360;BMP280;7779;49.596;11.070;2023-05-10T09:52:57;97758.25;;;22.92
15360;BMP280;7779;49.596;11.070;2023-05-10T09:58:02;97765.91;;;22.92
15360;BMP280;7779;49.596;11.070;2023-05-10T10:00:35;97771.88;;;22.92
15360;BMP280;7779;49.596;11.070;2023-05-10T10:03:02;97765.91;;;22.95
15360;BMP280;7779;49.596;11.070;2023-05-10T10:05:34;97765.91;;;22.95
15360;BMP280;7779;49.596;11.070;2023-05-10T10:08:04;97762.50;;;22.93
15360;BMP280;7779;49.596;11.070;2023-05-10T10:10:32;97764.19;;;22.97
15360;BMP280;7779;49.596;11.070;2023-05-10T10:12:59;97759.09;;;23.00
15360;BMP280;7779;49.596;11.070;2023-05-10T10:15:25;97767.63;;;23.03
15360;BMP280;7779;49.596;11.070;2023-05-10T10:17:53;97761.63;;;23.04
15360;BMP280;7779;49.596;11.070;2023-05-10T10:20:20;97761.63;;;23.07
15360;BMP280;7779;49.596;11.070;2023-05-10T10:22:47;97753.94;;;23.12
15360;BMP280;7779;49.596;11.070;2023-05-10T10:25:15;97749.69;;;23.21
15360;BMP280;7779;49.596;11.070;2023-05-10T10:30:27;97750.47;;;23.48
15360;BMP280;7779;49.596;11.070;2023-05-10T10:35:39;97755.53;;;23.72
15360;BMP280;7779;49.596;11.070;2023-05-10T10:38:08;97743.53;;;23.80
15360;BMP280;7779;49.596;11.070;2023-05-10T10:40:34;97747.78;;;23.84
15360;BMP280;7779;49.596;11.070;2023-05-10T10:43:25;97751.16;;;23.89
15360;BMP280;7779;49.596;11.070;2023-05-10T10:46:17;97745.19;;;23.92
15360;BMP280;7779;49.596;11.070;2023-05-10T10:49:14;97750.28;;;23.92
15360;BMP280;7779;49.596;11.070;2023-05-10T10:54:58;97749.41;;;24.01
15360;BMP280;7779;49.596;11.070;2023-05-10T10:57:24;97748.56;;;23.97
15360;BMP280;7779;49.596;11.070;2023-05-10T11:02:45;97752.00;;;23.96
15360;BMP280;7779;49.596;11.070;2023-05-10T11:05:39;97748.56;;;23.94
15360;BMP280;7779;49.596;11.070;2023-05-10T11:11:03;97746.88;;;23.93
15360;BMP280;7779;49.596;11.070;2023-05-10T11:13:40;97740.06;;;23.92
15360;BMP280;7779;49.596;11.070;2023-05-10T11:16:23;97750.28;;;23.95
15360;BMP280;7779;49.596;11.070;2023-05-10T11:21:25;97751.13;;;24.02
15360;BMP280;7779;49.596;11.070;2023-05-10T11:23:56;97745.13;;;24.07
15360;BMP280;7779;49.596;11.070;2023-05-10T11:26:25;97747.63;;;24.13
15360;BMP280;7779;49.596;11.070;2023-05-10T11:28:53;97746.75;;;24.20
15360;BMP280;7779;49.596;11.070;2023-05-10T11:31:24;97754.38;;;24.26
15360;BMP280;7779;49.596;11.070;2023-05-10T11:33:57;97753.56;;;24.27
15360;BMP280;7779;49.596;11.070;2023-05-10T11:36:26;97748.41;;;24.21
15360;BMP280;7779;49.596;11.070;2023-05-10T11:38:54;97751.03;;;24.12
15360;BMP280;7779;49.596;11.070;2023-05-10T11:41:24;97753.69;;;24.00
15360;BMP280;7779;49.596;11.070;2023-05-10T11:43:53;97752.03;;;23.88
15360;BMP280;7779;49.596;11.070;2023-05-10T11:46:22;97755.50;;;23.78
15360;BMP280;7779;49.596;11.070;2023-05-10T11:48:56;97762.34;;;23.67
15360;BMP280;7779;49.596;11.070;2023-05-10T11:51:24;97758.94;;;23.53
15360;BMP280;7779;49.596;11.070;2023-05-10T11:53:54;97760.69;;;23.42
15360;BMP280;7779;49.596;11.070;2023-05-10T11:56:20;97760.72;;;23.33
15360;BMP280;7779;49.596;11.070;2023-05-10T11:58:58;97764.97;;;23.30
15360;BMP280;7779;49.596;11.070;2023-05-10T12:01:26;97769.25;;;23.28
15360;BMP280;7779;49.596;11.070;2023-05-10T12:03:54;97768.41;;;23.32
15360;BMP280;7779;49.596;11.070;2023-05-10T12:06:21;97764.13;;;23.38
15360;BMP280;7779;49.596;11.070;2023-05-10T12:08:48;97775.16;;;23.51
15360;BMP280;7779;49.596;11.070;2023-05-10T12:11:18;97770.91;;;23.63
15360;BMP280;7779;49.596;11.070;2023-05-10T12:13:44;97776.78;;;23.80
15360;BMP280;7779;49.596;11.070;2023-05-10T12:16:18;97764.78;;;23.96
15360;BMP280;7779;49.596;11.070;2023-05-10T12:18:47;97765.53;;;24.13
15360;BMP280;7779;49.596;11.070;2023-05-10T12:21:14;97766.31;;;24.30
15360;BMP280;7779;49.596;11.070;2023-05-10T12:23:41;97762.81;;;24.44
15360;BMP280;7779;49.596;11.070;2023-05-10T12:26:09;97755.91;;;24.55
15360;BMP280;7779;49.596;11.070;2023-05-10T12:28:38;97766.09;;;24.64
15360;BMP280;7779;49.596;11.070;2023-05-10T12:31:07;97754.94;;;24.70
15360;BMP280;7779;49.596;11.070;2023-05-10T12:33:44;97766.84;;;24.73
15360;BMP280;7779;49.596;11.070;2023-05-10T12:36:13;97763.44;;;24.74
15360;BMP280;7779;49.596;11.070;2023-05-10T12:38:44;97764.28;;;24.73
15360;BMP280;7779;49.596;11.070;2023-05-10T12:41:16;97763.47;;;24.72
15360;BMP280;7779;49.596;11.070;2023-05-10T12:43:43;97765.19;;;24.70
15360;BMP280;7779;49.596;11.070;2023-05-10T12:46:17;97763.50;;;24.69
15360;BMP280;7779;49.596;11.070;2023-05-10T12:48:44;97763.50;;;24.66
15360;BMP280;7779;49.596;11.070;2023-05-10T12:51:11;97758.41;;;24.63
15360;BMP280;7779;49.596;11.070;2023-05-10T12:53:39;97754.16;;;24.60
15360;BMP280;7779;49.596;11.070;2023-05-10T12:56:05;97755.00;;;24.61
15360;BMP280;7779;49.596;11.070;2023-05-10T12:58:31;97749.94;;;24.58
15360;BMP280;7779;49.596;11.070;2023-05-10T13:00:58;97753.34;;;24.57
15360;BMP280;7779;49.596;11.070;2023-05-10T13:03:24;97756.75;;;24.56
15360;BMP280;7779;49.596;11.070;2023-05-10T13:05:50;97753.38;;;24.51
15360;BMP280;7779;49.596;11.070;2023-05-10T13:08:16;97761.91;;;24.50
15360;BMP280;7779;49.596;11.070;2023-05-10T13:10:42;97755.06;;;24.52
15360;BMP280;7779;49.596;11.070;2023-05-10T13:13:07;97757.63;;;24.53
15360;BMP280;7779;49.596;11.070;2023-05-10T13:15:34;97752.50;;;24.56
15360;BMP280;7779;49.596;11.070;2023-05-10T13:18:00;97751.63;;;24.56
15360;BMP280;7779;49.596;11.070;2023-05-10T13:20:26;97753.34;;;24.57
15360;BMP280;7779;49.596;11.070;2023-05-10T13:22:53;97755.91;;;24.55
15360;BMP280;7779;49.596;11.070;2023-05-10T13:25:19;97751.69;;;24.50
15360;BMP280;7779;49.596;11.070;2023-05-10T13:27:45;97762.81;;;24.47
15360;BMP280;7779;49.596;11.070;2023-05-10T13:30:11;97770.50;;;24.43
15360;BMP280;7779;49.596;11.070;2023-05-10T13:32:37;97773.94;;;24.40
15360;BMP280;7779;49.596;11.070;2023-05-10T13:35:04;97775.66;;;24.38
15360;BMP280;7779;49.596;11.070;2023-05-10T13:37:31;97774.00;;;24.34
15360;BMP280;7779;49.596;11.070;2023-05-10T13:39:57;97778.28;;;24.33
15360;BMP280;7779;49.596;11.070;2023-05-10T13:42:23;97781.72;;;24.27
15360;BMP280;7779;49.596;11.070;2023-05-10T13:44:50;97785.13;;;24.17
15360;BMP280;7779;49.596;11.070;2023-05-10T13:47:16;97781.78;;;24.06
15360;BMP280;7779;49.596;11.070;2023-05-10T13:49:42;97780.16;;;23.93
15360;BMP280;7779;49.596;11.070;2023-05-10T13:52:07;97772.53;;;23.82
15360;BMP280;7779;49.596;11.070;2023-05-10T13:54:36;97770.88;;;23.67
15360;BMP280;7779;49.596;11.070;2023-05-10T13:57:02;97776.00;;;23.54
15360;BMP280;7779;49.596;11.070;2023-05-10T13:59:29;97774.34;;;23.41
15360;BMP280;7779;49.596;11.070;2023-05-10T14:01:58;97770.97;;;23.30
15360;BMP280;7779;49.596;11.070;2023-05-10T14:04:24;97771.84;;;23.23
15360;BMP280;7779;49.596;11.070;2023-05-10T14:06:50;97767.59;;;23.19
15360;BMP280;7779;49.596;11.070;2023-05-10T14:09:15;97773.53;;;23.17
15360;BMP280;7779;49.596;11.070;2023-05-10T14:11:41;97778.69;;;23.15
15360;BMP280;7779;49.596;11.070;2023-05-10T14:14:09;97774.41;;;23.14
15360;BMP280;7779;49.596;11.070;2023-05-10T14:16:35;97776.09;;;23.13
15360;BMP280;7779;49.596;11.070;2023-05-10T14:19:00;97779.50;;;23.10
15360;BMP280;7779;49.596;11.070;2023-05-10T14:21:28;97791.47;;;23.05
15360;BMP280;7779;49.596;11.070;2023-05-10T14:23:55;97783.78;;;22.96
15360;BMP280;7779;49.596;11.070;2023-05-10T14:26:21;97793.13;;;22.78
15360;BMP280;7779;49.596;11.070;2023-05-10T14:28:47;97789.69;;;22.52
15360;BMP280;7779;49.596;11.070;2023-05-10T14:31:13;97783.69;;;22.16
15360;BMP280;7779;49.596;11.070;2023-05-10T14:33:40;97788.66;;;21.85
15360;BMP280;7779;49.596;11.070;2023-05-10T14:36:06;97788.53;;;21.58
15360;BMP280;7779;49.596;11.070;2023-05-10T14:38:32;97790.09;;;21.36
15360;BMP280;7779;49.596;11.070;2023-05-10T14:40:58;97790.84;;;21.20
15360;BMP280;7779;49.596;11.070;2023-05-10T14:43:24;97792.44;;;21.06
15360;BMP280;7779;49.596;11.070;2023-05-10T14:45:50;97784.72;;;20.97
15360;BMP280;7779;49.596;11.070;2023-05-10T14:48:16;97782.16;;;20.91
15360;BMP280;7779;49.596;11.070;2023-05-10T14:50:43;97785.53;;;20.90
15360;BMP280;7779;49.596;11.070;2023-05-10T14:53:09;97780.44;;;20.90
15360;BMP280;7779;49.596;11.070;2023-05-10T14:55:35;97788.94;;;20.92